Time;durP1;ratioP1;P1;durP2;ratioP2;P2;SDS_P1;SDS_P2;PMS_P1;PMS_P2;Temp;Humidity;BMP_temperature;BMP_pressure;BME280_temperature;BME280_humidity;BME280_pressure;Samples;Min_cycle;Max_cycle;Signal;HPM_P1;HPM_P2
2022/05/19 00:01:22;;;;;;;20.42;14.57;;;;;;;;;;5060312;28;20029;-61
2022/05/19 00:03:48;;;;;;;25.38;14.80;;;;;;;;;;5060491;28;20033;-61
2022/05/19 00:06:14;;;;;;;23.60;15.02;;;;;;;;;;5060306;28;20024;-61
2022/05/19 00:08:39;;;;;;;25.45;15.25;;;;;;;;;;5057771;28;20082;-62
2022/05/19 00:11:11;;;;;;;27.60;15.23;;;;;;;;;;5061671;28;20036;-63
2022/05/19 00:13:37;;;;;;;31.10;15.98;;;;;;;;;;5058084;28;20020;-63
2022/05/19 00:16:05;;;;;;;36.50;16.38;;;;;;;;;;5058731;28;20072;-61
2022/05/19 00:18:32;;;;;;;23.58;15.50;;;;;;;;;;5052099;28;20433;-60
2022/05/19 00:20:58;;;;;;;23.08;15.43;;;;;;;;;;5056472;28;20024;-59
2022/05/19 00:23:24;;;;;;;32.63;15.38;;;;;;;;;;5066618;28;20491;-63
2022/05/19 00:25:50;;;;;;;26.75;15.20;;;;;;;;;;5065415;28;20032;-63
2022/05/19 00:28:16;;;;;;;24.20;15.60;;;;;;;;;;5056276;28;20416;-63
2022/05/19 00:30:41;;;;;;;20.23;14.48;;;;;;;;;;5071323;28;20037;-63
2022/05/19 00:33:08;;;;;;;32.28;16.92;;;;;;;;;;5056953;28;20422;-61
2022/05/19 00:35:36;;;;;;;27.38;15.32;;;;;;;;;;5063292;28;20121;-60
2022/05/19 00:38:02;;;;;;;25.77;17.45;;;;;;;;;;5059370;28;20040;-61
2022/05/19 00:40:28;;;;;;;23.95;16.30;;;;;;;;;;5064325;28;20123;-63
2022/05/19 00:42:54;;;;;;;24.75;15.65;;;;;;;;;;5072060;28;20110;-63
2022/05/19 00:45:23;;;;;;;28.17;16.05;;;;;;;;;;5052972;28;20025;-64
2022/05/19 00:48:18;;;;;;;32.03;16.15;;;;;;;;;;5056843;28;22503;-63
2022/05/19 00:51:03;;;;;;;22.90;15.45;;;;;;;;;;5062933;28;20035;-63
2022/05/19 00:53:41;;;;;;;24.83;16.35;;;;;;;;;;5057330;28;20028;-63
2022/05/19 00:56:18;;;;;;;25.88;16.92;;;;;;;;;;5061444;28;20029;-63
2022/05/19 00:58:56;;;;;;;27.25;17.02;;;;;;;;;;5066834;28;20029;-63
2022/05/19 01:01:22;;;;;;;35.15;17.30;;;;;;;;;;5055590;28;20024;-63
2022/05/19 01:03:55;;;;;;;22.92;16.63;;;;;;;;;;5062943;28;20039;-63
2022/05/19 01:06:22;;;;;;;31.67;17.25;;;;;;;;;;5065812;28;20096;-62
2022/05/19 01:08:55;;;;;;;28.08;16.90;;;;;;;;;;5053406;28;20056;-63
2022/05/19 01:11:20;;;;;;;32.05;16.60;;;;;;;;;;5060192;28;20027;-63
2022/05/19 01:13:46;;;;;;;27.50;15.75;;;;;;;;;;5061449;28;20387;-63
2022/05/19 01:16:13;;;;;;;31.35;16.83;;;;;;;;;;5066922;28;20078;-63
2022/05/19 01:18:41;;;;;;;24.45;16.20;;;;;;;;;;5056771;28;20040;-63
2022/05/19 01:21:08;;;;;;;26.35;16.98;;;;;;;;;;5064332;28;20025;-63
2022/05/19 01:23:43;;;;;;;32.13;17.85;;;;;;;;;;5063792;28;20020;-63
2022/05/19 01:26:28;;;;;;;21.80;16.00;;;;;;;;;;5059052;28;20029;-63
2022/05/19 01:28:56;;;;;;;31.55;16.88;;;;;;;;;;5069673;28;20036;-63
2022/05/19 01:31:37;;;;;;;33.13;18.38;;;;;;;;;;5068162;28;20024;-63
2022/05/19 01:34:06;;;;;;;27.10;16.25;;;;;;;;;;5059098;28;20038;-63
2022/05/19 01:36:32;;;;;;;26.27;17.10;;;;;;;;;;5060052;28;20132;-62
2022/05/19 01:39:03;;;;;;;23.20;16.77;;;;;;;;;;5060842;28;20039;-63
2022/05/19 01:41:38;;;;;;;23.20;17.13;;;;;;;;;;5057253;28;20043;-62
2022/05/19 01:44:28;;;;;;;26.92;16.70;;;;;;;;;;5057547;28;20044;-63
2022/05/19 01:47:04;;;;;;;27.75;16.33;;;;;;;;;;5056550;28;20393;-63
2022/05/19 01:49:45;;;;;;;31.42;18.13;;;;;;;;;;5055334;28;20044;-63
2022/05/19 01:52:54;;;;;;;25.05;16.90;;;;;;;;;;5055440;28;20073;-63
2022/05/19 01:55:27;;;;;;;24.33;16.70;;;;;;;;;;5044591;28;20045;-63
2022/05/19 01:58:01;;;;;;;30.35;17.05;;;;;;;;;;5064722;28;20036;-63
2022/05/19 02:00:29;;;;;;;24.98;16.08;;;;;;;;;;5060995;28;20048;-62
2022/05/19 02:03:13;;;;;;;24.58;16.83;;;;;;;;;;5059856;28;20029;-62
2022/05/19 02:05:54;;;;;;;27.17;16.70;;;;;;;;;;5058923;28;20074;-62
2022/05/19 02:08:33;;;;;;;24.65;16.58;;;;;;;;;;5055195;28;20122;-62
2022/05/19 02:11:01;;;;;;;22.48;16.20;;;;;;;;;;5060551;28;20447;-61
2022/05/19 02:13:30;;;;;;;24.25;16.20;;;;;;;;;;5051458;28;20102;-63
2022/05/19 02:16:00;;;;;;;24.63;16.80;;;;;;;;;;5053801;28;20087;-63
2022/05/19 02:18:27;;;;;;;23.02;16.92;;;;;;;;;;5064134;28;20036;-62
2022/05/19 02:20:55;;;;;;;30.90;17.73;;;;;;;;;;5059815;28;20044;-63
2022/05/19 02:23:21;;;;;;;25.90;17.33;;;;;;;;;;5062311;28;20032;-63
2022/05/19 02:25:49;;;;;;;30.30;18.65;;;;;;;;;;5062156;28;20440;-62
2022/05/19 02:28:24;;;;;;;26.73;17.80;;;;;;;;;;5056056;28;20041;-62
2022/05/19 02:30:50;;;;;;;27.73;17.67;;;;;;;;;;5059261;28;20072;-62
2022/05/19 02:33:17;;;;;;;23.73;17.80;;;;;;;;;;5064613;28;20110;-62
2022/05/19 02:35:44;;;;;;;25.08;18.38;;;;;;;;;;5054153;28;20104;-62
2022/05/19 02:38:11;;;;;;;23.73;18.98;;;;;;;;;;5055714;28;20036;-63
2022/05/19 02:40:38;;;;;;;22.63;17.27;;;;;;;;;;5067709;28;20362;-62
2022/05/19 02:43:06;;;;;;;29.25;17.58;;;;;;;;;;5074218;28;20479;-62
2022/05/19 02:45:32;;;;;;;31.67;18.52;;;;;;;;;;5069025;28;20041;-63
2022/05/19 02:47:59;;;;;;;23.85;16.27;;;;;;;;;;5061162;28;20076;-63
2022/05/19 02:50:25;;;;;;;35.80;16.77;;;;;;;;;;5069641;28;20023;-63
2022/05/19 02:52:51;;;;;;;29.05;16.67;;;;;;;;;;5068687;28;20074;-62
2022/05/19 02:55:17;;;;;;;26.75;16.02;;;;;;;;;;5062565;28;20040;-62
2022/05/19 02:57:44;;;;;;;23.42;15.30;;;;;;;;;;5061848;28;20036;-63
2022/05/19 03:00:16;;;;;;;30.02;15.60;;;;;;;;;;5066994;28;20117;-62
2022/05/19 03:02:43;;;;;;;26.65;15.90;;;;;;;;;;5060813;28;20055;-63
2022/05/19 03:05:12;;;;;;;22.90;15.70;;;;;;;;;;5057244;28;20032;-62
2022/05/19 03:07:38;;;;;;;21.52;14.40;;;;;;;;;;5065012;28;20492;-63
2022/05/19 03:10:05;;;;;;;28.30;15.32;;;;;;;;;;5061242;28;20082;-62
2022/05/19 03:12:31;;;;;;;28.00;16.05;;;;;;;;;;5065346;28;20043;-62
2022/05/19 03:14:57;;;;;;;25.52;15.00;;;;;;;;;;5062275;28;20374;-62
2022/05/19 03:17:23;;;;;;;23.05;15.07;;;;;;;;;;5066425;28;20090;-62
2022/05/19 03:19:53;;;;;;;20.73;14.15;;;;;;;;;;5069400;28;20077;-62
2022/05/19 03:22:19;;;;;;;20.65;14.57;;;;;;;;;;5064497;28;20081;-62
2022/05/19 03:24:45;;;;;;;25.13;14.85;;;;;;;;;;5066032;28;20067;-62
2022/05/19 03:27:11;;;;;;;22.58;14.43;;;;;;;;;;5073362;28;20024;-62
2022/05/19 03:29:38;;;;;;;24.83;14.43;;;;;;;;;;5064737;28;20495;-62
2022/05/19 03:32:04;;;;;;;18.48;14.73;;;;;;;;;;5070276;28;20041;-62
2022/05/19 03:34:30;;;;;;;24.08;15.85;;;;;;;;;;5068903;28;20497;-62
2022/05/19 03:36:55;;;;;;;27.23;15.68;;;;;;;;;;5057839;28;20118;-62
2022/05/19 03:39:22;;;;;;;27.77;15.93;;;;;;;;;;5056575;28;20037;-62
2022/05/19 03:41:47;;;;;;;32.58;15.15;;;;;;;;;;5062484;28;20028;-62
2022/05/19 03:44:13;;;;;;;23.23;15.50;;;;;;;;;;5061627;28;21040;-62
2022/05/19 03:46:39;;;;;;;26.67;15.70;;;;;;;;;;5069665;28;20040;-62
2022/05/19 03:49:05;;;;;;;27.63;15.75;;;;;;;;;;5062730;28;20033;-62
2022/05/19 03:51:32;;;;;;;20.17;14.88;;;;;;;;;;5061501;28;20447;-62
2022/05/19 03:53:58;;;;;;;23.17;16.27;;;;;;;;;;5056218;28;20128;-62
2022/05/19 03:56:25;;;;;;;22.25;17.17;;;;;;;;;;5056334;28;20129;-62
2022/05/19 03:58:51;;;;;;;24.20;17.20;;;;;;;;;;5057824;28;20515;-62
2022/05/19 04:01:18;;;;;;;26.35;17.92;;;;;;;;;;5061594;28;20105;-62
2022/05/19 04:03:44;;;;;;;21.80;16.33;;;;;;;;;;5063046;28;20497;-63
2022/05/19 04:06:10;;;;;;;25.48;16.98;;;;;;;;;;5067707;28;20041;-62
2022/05/19 04:08:36;;;;;;;28.58;18.23;;;;;;;;;;5056861;28;20103;-63
2022/05/19 04:11:02;;;;;;;30.30;16.83;;;;;;;;;;5062441;28;20024;-62
2022/05/19 04:13:29;;;;;;;27.92;18.30;;;;;;;;;;5060292;28;20460;-62
2022/05/19 04:15:54;;;;;;;30.88;18.25;;;;;;;;;;5065705;28;20101;-62
2022/05/19 04:18:20;;;;;;;23.92;17.48;;;;;;;;;;5064762;28;20036;-61
2022/05/19 04:20:46;;;;;;;28.15;17.50;;;;;;;;;;5062827;28;20121;-62
2022/05/19 04:23:11;;;;;;;26.20;17.00;;;;;;;;;;5057489;28;20033;-63
2022/05/19 04:25:38;;;;;;;26.38;16.92;;;;;;;;;;5054644;28;20017;-62
2022/05/19 04:28:06;;;;;;;23.60;16.15;;;;;;;;;;5061163;28;20078;-62
2022/05/19 04:30:31;;;;;;;28.38;17.00;;;;;;;;;;5064953;28;20024;-62
2022/05/19 04:32:57;;;;;;;30.60;16.05;;;;;;;;;;5047135;28;20077;-62
2022/05/19 04:35:24;;;;;;;24.75;17.38;;;;;;;;;;5061423;28;20147;-62
2022/05/19 04:37:50;;;;;;;28.40;16.10;;;;;;;;;;5060995;28;20063;-62
2022/05/19 04:40:17;;;;;;;28.83;16.30;;;;;;;;;;5064747;28;20047;-62
2022/05/19 04:42:44;;;;;;;30.60;17.02;;;;;;;;;;5059443;28;20033;-62
2022/05/19 04:45:12;;;;;;;25.48;15.98;;;;;;;;;;5063032;28;20036;-62
2022/05/19 04:47:38;;;;;;;24.70;17.20;;;;;;;;;;5061781;28;20376;-62
2022/05/19 04:50:05;;;;;;;25.83;15.50;;;;;;;;;;5055168;28;20043;-62
2022/05/19 04:52:31;;;;;;;24.05;15.95;;;;;;;;;;5055235;28;20032;-62
2022/05/19 04:54:57;;;;;;;22.92;16.00;;;;;;;;;;5059053;28;20049;-63
2022/05/19 04:57:22;;;;;;;25.88;16.25;;;;;;;;;;5060910;28;21327;-62
2022/05/19 04:59:48;;;;;;;25.40;16.20;;;;;;;;;;5066196;28;20039;-62
2022/05/19 05:02:14;;;;;;;19.17;15.05;;;;;;;;;;5057781;28;20078;-62
2022/05/19 05:04:40;;;;;;;24.98;16.45;;;;;;;;;;5061536;28;20036;-62
2022/05/19 05:07:06;;;;;;;19.02;15.07;;;;;;;;;;5055753;28;20029;-61
2022/05/19 05:09:31;;;;;;;19.88;15.15;;;;;;;;;;5059971;28;20163;-62
2022/05/19 05:11:57;;;;;;;22.90;14.10;;;;;;;;;;5057305;28;20107;-62
2022/05/19 05:14:23;;;;;;;27.60;14.95;;;;;;;;;;5062578;28;20036;-62
2022/05/19 05:16:51;;;;;;;22.35;14.80;;;;;;;;;;5051560;28;20495;-62
2022/05/19 05:19:21;;;;;;;20.98;14.18;;;;;;;;;;5063513;28;20041;-62
2022/05/19 05:21:48;;;;;;;23.45;14.80;;;;;;;;;;5056204;28;20120;-62
2022/05/19 05:24:14;;;;;;;23.00;14.65;;;;;;;;;;5061356;28;20028;-62
2022/05/19 05:26:40;;;;;;;23.80;13.88;;;;;;;;;;5062788;28;20024;-62
2022/05/19 05:29:06;;;;;;;20.35;13.73;;;;;;;;;;5070083;28;20050;-62
2022/05/19 05:31:31;;;;;;;19.67;12.80;;;;;;;;;;5068076;28;20564;-62
2022/05/19 05:33:57;;;;;;;28.50;15.00;;;;;;;;;;5051957;28;20104;-62
2022/05/19 05:36:23;;;;;;;21.27;14.43;;;;;;;;;;5057386;28;20064;-61
2022/05/19 05:38:49;;;;;;;27.20;13.55;;;;;;;;;;5055519;28;20037;-62
2022/05/19 05:41:15;;;;;;;24.00;14.77;;;;;;;;;;5063719;28;20052;-62
2022/05/19 05:43:41;;;;;;;28.35;15.90;;;;;;;;;;5056908;28;20104;-62
2022/05/19 05:46:14;;;;;;;26.98;13.65;;;;;;;;;;5064631;28;20454;-62
2022/05/19 05:48:41;;;;;;;22.25;13.40;;;;;;;;;;5060105;28;20028;-62
2022/05/19 05:51:08;;;;;;;20.75;13.00;;;;;;;;;;5058815;28;20666;-62
2022/05/19 05:53:36;;;;;;;26.70;12.88;;;;;;;;;;5055188;28;20039;-62
2022/05/19 05:56:04;;;;;;;22.17;12.80;;;;;;;;;;5056222;28;20434;-62
2022/05/19 05:58:30;;;;;;;27.75;13.73;;;;;;;;;;5054415;28;20032;-62
2022/05/19 06:00:56;;;;;;;20.10;13.13;;;;;;;;;;5057854;28;20029;-62
2022/05/19 06:03:22;;;;;;;21.58;13.20;;;;;;;;;;5056105;28;20051;-60
2022/05/19 06:05:47;;;;;;;22.25;13.38;;;;;;;;;;5058967;28;20115;-62
2022/05/19 06:08:13;;;;;;;21.40;13.80;;;;;;;;;;5061613;28;20528;-62
2022/05/19 06:10:39;;;;;;;23.13;13.80;;;;;;;;;;5055583;28;21939;-62
2022/05/19 06:13:05;;;;;;;17.05;11.80;;;;;;;;;;5053782;28;20025;-62
2022/05/19 06:15:32;;;;;;;22.38;13.95;;;;;;;;;;5060344;28;20033;-62
2022/05/19 06:17:58;;;;;;;20.98;12.38;;;;;;;;;;5064978;28;20059;-62
2022/05/19 06:20:24;;;;;;;24.00;13.38;;;;;;;;;;5063535;28;20086;-59
2022/05/19 06:22:50;;;;;;;26.15;11.60;;;;;;;;;;5050457;28;20037;-59
2022/05/19 06:25:19;;;;;;;60.28;14.43;;;;;;;;;;5058389;28;20063;-60
2022/05/19 06:27:45;;;;;;;24.05;10.55;;;;;;;;;;5058594;28;20115;-60
2022/05/19 06:30:12;;;;;;;25.60;9.95;;;;;;;;;;5053700;28;20032;-60
2022/05/19 06:32:40;;;;;;;26.05;12.32;;;;;;;;;;5058832;28;20028;-60
2022/05/19 06:35:08;;;;;;;25.63;11.25;;;;;;;;;;5062447;28;20017;-60
2022/05/19 06:37:33;;;;;;;21.98;12.02;;;;;;;;;;5053385;28;20063;-60
2022/05/19 06:39:59;;;;;;;22.27;11.57;;;;;;;;;;5051017;28;20068;-61
2022/05/19 06:42:25;;;;;;;152.38;18.65;;;;;;;;;;5056041;28;20431;-60
2022/05/19 06:44:51;;;;;;;31.85;11.05;;;;;;;;;;5053781;28;20051;-61
2022/05/19 06:47:17;;;;;;;18.65;9.75;;;;;;;;;;5053608;28;20061;-61
2022/05/19 06:49:45;;;;;;;18.38;9.88;;;;;;;;;;5056716;28;20392;-60
2022/05/19 06:52:16;;;;;;;23.25;9.18;;;;;;;;;;5059958;28;20431;-60
2022/05/19 06:54:46;;;;;;;17.25;9.77;;;;;;;;;;5066789;28;20049;-61
2022/05/19 06:57:12;;;;;;;18.95;8.02;;;;;;;;;;5055363;28;20056;-61
2022/05/19 06:59:39;;;;;;;12.40;7.32;;;;;;;;;;5058135;28;20493;-61
2022/05/19 07:02:06;;;;;;;23.00;7.20;;;;;;;;;;5065801;28;20037;-60
2022/05/19 07:04:32;;;;;;;14.23;6.20;;;;;;;;;;5053124;28;20040;-60
2022/05/19 07:06:59;;;;;;;15.05;6.35;;;;;;;;;;5057806;28;20107;-61
2022/05/19 07:09:25;;;;;;;19.00;6.97;;;;;;;;;;5056791;28;20040;-61
2022/05/19 07:11:50;;;;;;;25.80;9.73;;;;;;;;;;5055140;28;20450;-61
2022/05/19 07:14:17;;;;;;;22.92;10.90;;;;;;;;;;5061309;28;20036;-61
2022/05/19 07:16:46;;;;;;;24.70;12.00;;;;;;;;;;5064739;28;20036;-61
2022/05/19 07:21:56;;;;;;;18.45;10.75;;;;;;;;;;5057591;28;20025;-61
2022/05/19 07:24:22;;;;;;;20.45;10.43;;;;;;;;;;5064589;28;20494;-61
2022/05/19 07:26:50;;;;;;;17.67;10.02;;;;;;;;;;5064595;28;20444;-61
2022/05/19 07:29:18;;;;;;;17.50;9.70;;;;;;;;;;5070771;28;20032;-61
2022/05/19 07:31:46;;;;;;;17.90;10.80;;;;;;;;;;5060204;28;20477;-61
2022/05/19 07:34:14;;;;;;;21.88;10.82;;;;;;;;;;5059263;28;20028;-61
2022/05/19 07:36:40;;;;;;;22.00;11.07;;;;;;;;;;5056433;28;20517;-61
2022/05/19 07:39:07;;;;;;;24.42;11.07;;;;;;;;;;5061271;28;20036;-61
2022/05/19 07:41:33;;;;;;;24.80;10.68;;;;;;;;;;5067336;28;20418;-61
2022/05/19 07:43:59;;;;;;;18.52;9.35;;;;;;;;;;5066268;28;20032;-61
2022/05/19 07:46:27;;;;;;;19.00;8.95;;;;;;;;;;5056750;28;20476;-61
2022/05/19 07:48:56;;;;;;;14.73;8.05;;;;;;;;;;5071022;28;20039;-61
2022/05/19 07:51:27;;;;;;;17.80;8.35;;;;;;;;;;5071636;28;20154;-61
2022/05/19 07:53:54;;;;;;;18.13;8.35;;;;;;;;;;5066738;28;20557;-61
2022/05/19 07:56:21;;;;;;;18.38;8.13;;;;;;;;;;5061703;28;20085;-61
2022/05/19 07:58:47;;;;;;;14.73;6.78;;;;;;;;;;5056715;28;20048;-61
2022/05/19 08:01:16;;;;;;;15.88;7.68;;;;;;;;;;5066975;28;20032;-61
2022/05/19 08:03:42;;;;;;;13.50;7.03;;;;;;;;;;5058017;28;20125;-61
2022/05/19 08:06:10;;;;;;;15.63;6.50;;;;;;;;;;5063305;28;20025;-61
2022/05/19 08:08:37;;;;;;;18.05;6.30;;;;;;;;;;5061919;28;20017;-61
2022/05/19 08:11:03;;;;;;;14.77;6.00;;;;;;;;;;5059066;28;20040;-62
2022/05/19 08:16:14;;;;;;;22.00;5.93;;;;;;;;;;5057117;28;20025;-61
2022/05/19 08:18:40;;;;;;;14.90;6.03;;;;;;;;;;5069580;28;20040;-61
2022/05/19 08:21:12;;;;;;;16.75;5.90;;;;;;;;;;5063876;28;20219;-61
2022/05/19 08:23:39;;;;;;;;;;;;;;;;;;5061995;28;20032;-61
2022/05/19 08:26:08;;;;;;;15.63;6.07;;;;;;;;;;5068788;28;22414;-61
2022/05/19 08:28:35;;;;;;;14.70;6.43;;;;;;;;;;5060332;28;20111;-62
2022/05/19 08:31:10;;;;;;;8.25;5.68;;;;;;;;;;5057819;28;20032;-61
2022/05/19 08:33:37;;;;;;;24.67;6.82;;;;;;;;;;5066746;28;20051;-62
2022/05/19 08:36:04;;;;;;;13.13;6.50;;;;;;;;;;5057937;28;20036;-62
2022/05/19 08:38:31;;;;;;;12.85;6.38;;;;;;;;;;5064705;28;20427;-62
2022/05/19 08:41:20;;;;;;;13.50;6.50;;;;;;;;;;5057803;28;20033;-62
2022/05/19 08:43:56;;;;;;;16.15;7.03;;;;;;;;;;5062241;28;20125;-61
2022/05/19 08:46:25;;;;;;;17.70;6.70;;;;;;;;;;5057705;28;20383;-61
2022/05/19 08:48:55;;;;;;;17.95;6.75;;;;;;;;;;5055645;28;20067;-62
2022/05/19 08:51:29;;;;;;;14.77;7.00;;;;;;;;;;5064405;28;20032;-61
2022/05/19 08:54:02;;;;;;;12.93;6.80;;;;;;;;;;5058233;28;20525;-62
2022/05/19 08:56:35;;;;;;;18.92;7.85;;;;;;;;;;5064267;28;20028;-62
2022/05/19 08:59:28;;;;;;;18.05;7.50;;;;;;;;;;5059023;28;20094;-61
2022/05/19 09:02:00;;;;;;;17.60;7.15;;;;;;;;;;5070769;28;20139;-62
2022/05/19 09:05:08;;;;;;;15.90;8.30;;;;;;;;;;5063055;28;20449;-62
2022/05/19 09:07:56;;;;;;;21.35;8.13;;;;;;;;;;5014591;28;20044;-62
2022/05/19 09:10:37;;;;;;;15.98;7.85;;;;;;;;;;5012405;28;20607;-62
2022/05/19 09:13:41;;;;;;;46.00;8.50;;;;;;;;;;5014348;28;20138;-61
2022/05/19 09:16:17;;;;;;;23.35;8.45;;;;;;;;;;5013286;28;20694;-62
2022/05/19 09:19:10;;;;;;;19.52;7.85;;;;;;;;;;5012461;28;20042;-61
2022/05/19 09:21:39;;;;;;;26.15;7.60;;;;;;;;;;4991898;28;20034;-62
2022/05/19 09:24:06;;;;;;;21.65;7.28;;;;;;;;;;4995341;28;20505;-62
2022/05/19 09:26:41;;;;;;;19.98;7.15;;;;;;;;;;4987408;28;20109;-62
2022/05/19 09:29:20;;;;;;;12.68;7.18;;;;;;;;;;4989100;28;20530;-63
2022/05/19 09:31:47;;;;;;;21.58;7.45;;;;;;;;;;4999669;28;20061;-62
2022/05/19 09:34:13;;;;;;;18.92;7.28;;;;;;;;;;4987887;28;20045;-62
2022/05/19 09:36:54;;;;;;;16.38;7.30;;;;;;;;;;4991787;28;20034;-63
2022/05/19 09:39:20;;;;;;;13.57;7.32;;;;;;;;;;4993657;28;20109;-62
2022/05/19 09:41:54;;;;;;;17.25;7.05;;;;;;;;;;4986363;28;20047;-62
2022/05/19 09:44:29;;;;;;;20.77;7.20;;;;;;;;;;4976911;28;20031;-61
2022/05/19 09:46:55;;;;;;;14.48;6.90;;;;;;;;;;4982210;28;20153;-63
2022/05/19 09:49:33;;;;;;;14.77;7.43;;;;;;;;;;4978884;28;20117;-62
2022/05/19 09:52:01;;;;;;;17.10;7.15;;;;;;;;;;4972562;28;20676;-62
2022/05/19 09:54:32;;;;;;;19.52;7.00;;;;;;;;;;4990303;28;20038;-63
2022/05/19 09:57:14;;;;;;;24.10;7.90;;;;;;;;;;4979157;28;20038;-62
2022/05/19 09:59:48;;;;;;;14.18;7.78;;;;;;;;;;5040267;28;20036;-63
2022/05/19 10:02:23;;;;;;;21.77;7.78;;;;;;;;;;5044112;28;20552;-63
2022/05/19 10:04:55;;;;;;;18.83;8.30;;;;;;;;;;5056454;28;20064;-63
2022/05/19 10:07:24;;;;;;;;;;;;;;;;;;5068515;28;20502;-63
2022/05/19 10:09:55;;;;;;;17.65;7.50;;;;;;;;;;5065029;28;20376;-63
2022/05/19 10:12:28;;;;;;;15.18;6.55;;;;;;;;;;5067851;28;20043;-62
2022/05/19 10:15:04;;;;;;;13.70;7.07;;;;;;;;;;5057292;28;20450;-63
2022/05/19 10:18:00;;;;;;;13.73;7.22;;;;;;;;;;5056114;28;20042;-64
2022/05/19 10:20:32;;;;;;;18.95;6.95;;;;;;;;;;5051990;28;20025;-62
2022/05/19 10:23:27;;;;;;;22.45;7.63;;;;;;;;;;5063094;28;20571;-63
2022/05/19 10:26:08;;;;;;;22.30;7.47;;;;;;;;;;5003465;28;20093;-63
2022/05/19 10:31:48;;;;;;;18.08;6.13;;;;;;;;;;4997977;28;20205;-63
2022/05/19 10:34:29;;;;;;;22.17;7.65;;;;;;;;;;4996129;28;20028;-63
2022/05/19 10:37:21;;;;;;;14.40;7.10;;;;;;;;;;5001792;28;20058;-63
2022/05/19 10:40:18;;;;;;;11.93;6.05;;;;;;;;;;4993952;28;20398;-63
2022/05/19 10:43:00;;;;;;;12.15;6.53;;;;;;;;;;4996399;28;20552;-63
2022/05/19 10:45:41;;;;;;;18.33;6.13;;;;;;;;;;5007340;28;20502;-63
2022/05/19 10:48:38;;;;;;;11.82;5.45;;;;;;;;;;5000482;28;20038;-62
2022/05/19 10:51:10;;;;;;;16.80;6.22;;;;;;;;;;4995590;28;20428;-62
2022/05/19 10:53:51;;;;;;;9.77;5.72;;;;;;;;;;5000907;28;20154;-63
2022/05/19 10:56:46;;;;;;;10.70;5.43;;;;;;;;;;4999473;28;20046;-62
2022/05/19 10:59:14;;;;;;;14.55;5.90;;;;;;;;;;4967503;28;20110;-62
2022/05/19 11:01:45;;;;;;;10.52;5.50;;;;;;;;;;4968967;28;20460;-60
2022/05/19 11:04:52;;;;;;;9.80;4.73;;;;;;;;;;4992359;28;20073;-62
2022/05/19 11:07:30;;;;;;;23.33;6.03;;;;;;;;;;4989149;28;21067;-62
2022/05/19 11:10:12;;;;;;;14.05;6.55;;;;;;;;;;4986834;28;20438;-63
2022/05/19 11:12:56;;;;;;;15.32;5.93;;;;;;;;;;4991099;28;20026;-63
2022/05/19 11:15:25;;;;;;;16.30;4.80;;;;;;;;;;4990460;28;20553;-62
2022/05/19 11:18:09;;;;;;;11.30;5.07;;;;;;;;;;4987131;28;20491;-63
2022/05/19 11:21:10;;;;;;;13.32;5.10;;;;;;;;;;4992093;28;20113;-62
2022/05/19 11:24:03;;;;;;;17.75;4.72;;;;;;;;;;4987248;28;20038;-62
2022/05/19 11:26:42;;;;;;;13.40;4.28;;;;;;;;;;4988267;28;20025;-63
2022/05/19 11:29:23;;;;;;;13.98;3.70;;;;;;;;;;4989681;28;20121;-62
2022/05/19 11:32:27;;;;;;;18.87;4.30;;;;;;;;;;4989357;28;20030;-62
2022/05/19 11:35:14;;;;;;;8.50;3.15;;;;;;;;;;4954025;28;20042;-62
2022/05/19 11:37:46;;;;;;;11.02;3.70;;;;;;;;;;4995546;28;20042;-59
2022/05/19 11:40:20;;;;;;;;;;;;;;;;;;4995540;28;20054;-63
2022/05/19 11:43:20;;;;;;;7.47;3.10;;;;;;;;;;4997672;28;19932;-63
2022/05/19 11:46:11;;;;;;;10.00;2.80;;;;;;;;;;4995704;28;20038;-63
2022/05/19 11:57:42;;;;;;;6.25;2.33;;;;;;;;;;4999816;28;20173;-63
2022/05/19 12:00:13;;;;;;;10.63;2.50;;;;;;;;;;4996150;28;20498;-63
2022/05/19 12:03:19;;;;;;;7.75;2.10;;;;;;;;;;4999815;28;20045;-63
2022/05/19 12:05:58;;;;;;;13.63;2.90;;;;;;;;;;4996031;28;20037;-63
2022/05/19 12:08:39;;;;;;;9.10;2.42;;;;;;;;;;4983933;28;20031;-63
2022/05/19 12:11:44;;;;;;;19.40;2.40;;;;;;;;;;5043304;28;20048;-63
2022/05/19 12:14:12;;;;;;;11.27;2.70;;;;;;;;;;5055205;28;20145;-63
2022/05/19 12:16:52;;;;;;;10.35;2.13;;;;;;;;;;5060166;28;20047;-63
2022/05/19 12:19:39;;;;;;;7.57;2.22;;;;;;;;;;5055894;28;20043;-64
2022/05/19 12:22:06;;;;;;;19.65;3.65;;;;;;;;;;5065110;28;20051;-63
2022/05/19 12:24:39;;;;;;;12.02;2.55;;;;;;;;;;5052095;28;20050;-64
2022/05/19 12:27:15;;;;;;;20.50;2.38;;;;;;;;;;5070955;28;20017;-63
2022/05/19 12:29:54;;;;;;;7.22;2.33;;;;;;;;;;5061580;28;20029;-63
2022/05/19 12:32:28;;;;;;;13.82;2.22;;;;;;;;;;5058547;28;20033;-64
2022/05/19 12:35:03;;;;;;;10.50;2.20;;;;;;;;;;5063933;28;20050;-63
2022/05/19 12:37:38;;;;;;;7.82;2.00;;;;;;;;;;5064039;28;20067;-63
2022/05/19 12:40:22;;;;;;;7.10;1.80;;;;;;;;;;5063955;28;20040;-63
2022/05/19 12:42:49;;;;;;;11.32;2.05;;;;;;;;;;5056639;28;20041;-63
2022/05/19 12:45:27;;;;;;;8.40;1.90;;;;;;;;;;5064827;28;20104;-63
2022/05/19 12:47:59;;;;;;;13.70;1.73;;;;;;;;;;5060130;28;20405;-62
2022/05/19 12:50:43;;;;;;;5.88;1.40;;;;;;;;;;5057308;28;20460;-63
2022/05/19 12:53:30;;;;;;;18.42;2.30;;;;;;;;;;5062490;28;20025;-62
2022/05/19 12:55:58;;;;;;;12.20;2.00;;;;;;;;;;5064742;28;20041;-62
2022/05/19 12:58:46;;;;;;;15.85;2.85;;;;;;;;;;5062170;28;20032;-62
2022/05/19 13:01:27;;;;;;;15.30;2.40;;;;;;;;;;5056953;28;20413;-62
2022/05/19 13:04:03;;;;;;;30.70;2.83;;;;;;;;;;5042882;28;20043;-63
2022/05/19 13:06:32;;;;;;;34.00;1.95;;;;;;;;;;5064256;28;20637;-63
2022/05/19 13:09:03;;;;;;;11.02;2.85;;;;;;;;;;5055795;28;20067;-63
2022/05/19 13:11:46;;;;;;;14.00;2.08;;;;;;;;;;5058922;28;20078;-63
2022/05/19 13:14:17;;;;;;;12.13;2.30;;;;;;;;;;5054530;28;20133;-63
2022/05/19 13:16:51;;;;;;;19.85;2.42;;;;;;;;;;5060016;28;20033;-64
2022/05/19 13:19:26;;;;;;;26.83;2.88;;;;;;;;;;5063622;28;20163;-63
2022/05/19 13:21:55;;;;;;;14.90;2.53;;;;;;;;;;5060493;28;20027;-63
2022/05/19 13:24:24;;;;;;;22.17;2.83;;;;;;;;;;5064719;28;20480;-61
2022/05/19 13:32:33;;;;;;;11.98;2.33;;;;;;;;;;5061609;28;20024;-62
2022/05/19 13:35:10;;;;;;;11.85;2.33;;;;;;;;;;5055949;28;20040;-63
2022/05/19 13:37:39;;;;;;;13.20;2.30;;;;;;;;;;5056534;28;20081;-63
2022/05/19 13:40:11;;;;;;;7.50;1.73;;;;;;;;;;5069441;28;20033;-62
2022/05/19 13:42:38;;;;;;;8.75;2.03;;;;;;;;;;5060238;28;20020;-62
2022/05/19 13:45:05;;;;;;;20.40;2.10;;;;;;;;;;5057619;28;20033;-61
2022/05/19 13:47:32;;;;;;;8.30;2.13;;;;;;;;;;5059955;28;20036;-61
2022/05/19 13:50:01;;;;;;;7.88;1.98;;;;;;;;;;5058227;28;20028;-61
2022/05/19 13:52:34;;;;;;;10.35;2.30;;;;;;;;;;5056880;28;20035;-61
2022/05/19 13:54:59;;;;;;;9.07;1.70;;;;;;;;;;5060581;28;20048;-61
2022/05/19 13:57:28;;;;;;;7.68;1.83;;;;;;;;;;5062316;28;20045;-62
2022/05/19 13:59:59;;;;;;;4.82;1.58;;;;;;;;;;5065096;28;20044;-62
2022/05/19 14:02:32;;;;;;;5.68;1.65;;;;;;;;;;5060039;28;20052;-61
2022/05/19 14:04:59;;;;;;;9.35;2.03;;;;;;;;;;5059198;28;20024;-63
2022/05/19 14:07:26;;;;;;;2.55;1.45;;;;;;;;;;5066823;28;20036;-62
2022/05/19 14:09:59;;;;;;;6.22;1.73;;;;;;;;;;5066848;28;20477;-62
2022/05/19 14:12:41;;;;;;;2.63;1.65;;;;;;;;;;5059914;28;20036;-62
2022/05/19 14:15:15;;;;;;;6.22;1.88;;;;;;;;;;5055439;28;20024;-63
2022/05/19 14:17:48;;;;;;;10.43;1.75;;;;;;;;;;5063707;28;20041;-62
2022/05/19 14:20:40;;;;;;;4.28;2.13;;;;;;;;;;5060371;28;20021;-62
2022/05/19 14:23:12;;;;;;;5.47;1.70;;;;;;;;;;5057276;28;20029;-62
2022/05/19 14:25:41;;;;;;;5.15;1.60;;;;;;;;;;5060749;28;20052;-61
2022/05/19 14:28:10;;;;;;;6.40;1.75;;;;;;;;;;5065667;28;20051;-62
2022/05/19 14:30:40;;;;;;;8.32;1.98;;;;;;;;;;5052976;28;20063;-62
2022/05/19 14:33:08;;;;;;;9.05;2.00;;;;;;;;;;5057923;28;20032;-61
2022/05/19 14:35:42;;;;;;;3.75;1.67;;;;;;;;;;5057775;28;20071;-62
2022/05/19 14:38:36;;;;;;;11.55;1.80;;;;;;;;;;5062812;28;20070;-62
2022/05/19 14:44:07;;;;;;;10.00;2.13;;;;;;;;;;5061901;28;20443;-61
2022/05/19 14:46:42;;;;;;;9.50;2.13;;;;;;;;;;5062328;28;20032;-61
2022/05/19 14:49:12;;;;;;;6.80;1.98;;;;;;;;;;5057230;28;20119;-62
2022/05/19 14:51:41;;;;;;;10.13;2.00;;;;;;;;;;5059858;28;20044;-62
2022/05/19 14:54:11;;;;;;;3.70;2.00;;;;;;;;;;5057610;28;20037;-62
2022/05/19 14:56:46;;;;;;;10.43;2.17;;;;;;;;;;5056124;28;20037;-61
2022/05/19 14:59:19;;;;;;;5.75;2.05;;;;;;;;;;5059369;28;20040;-61
2022/05/19 15:01:45;;;;;;;8.07;2.58;;;;;;;;;;5058973;28;20033;-62
2022/05/19 15:04:11;;;;;;;10.82;2.13;;;;;;;;;;5059275;28;20041;-62
2022/05/19 15:06:37;;;;;;;11.48;2.42;;;;;;;;;;5063269;28;20393;-62
2022/05/19 15:09:03;;;;;;;7.00;2.05;;;;;;;;;;5058202;28;20028;-62
2022/05/19 15:11:29;;;;;;;13.88;2.35;;;;;;;;;;5052903;28;20040;-62
2022/05/19 15:13:58;;;;;;;8.60;2.28;;;;;;;;;;5053519;28;20469;-62
2022/05/19 15:16:23;;;;;;;5.88;2.38;;;;;;;;;;5060054;28;20669;-62
2022/05/19 15:18:50;;;;;;;14.88;2.50;;;;;;;;;;5061290;28;20093;-62